Time;durP1;ratioP1;P1;durP2;ratioP2;P2;SDS_P1;SDS_P2;PMS_P1;PMS_P2;Temp;Humidity;BMP_temperature;BMP_pressure;BME280_temperature;BME280_humidity;BME280_pressure;Samples;Min_cycle;Max_cycle;Signal;HPM_P1;HPM_P2
2024/02/13 00:00:10;;;;;;;17.00;10.40;;;;;;;;;;103793;1289;544665;-74
2024/02/13 00:03:39;;;;;;;21.60;12.40;;;;;;;;;;103808;1288;544984;-74
2024/02/13 00:07:16;;;;;;;25.60;12.80;;;;;;;;;;103612;1299;545060;-74
2024/02/13 00:10:54;;;;;;;18.20;10.20;;;;;;;;;;103575;1294;545075;-74
2024/02/13 00:14:31;;;;;;;17.00;10.00;;;;;;;;;;103722;1289;544911;-74
2024/02/13 00:18:08;;;;;;;19.60;11.40;;;;;;;;;;103903;1289;544985;-73
2024/02/13 00:21:48;;;;;;;24.80;11.30;;;;;;;;;;103692;1290;544743;-74
2024/02/13 00:25:23;;;;;;;21.60;11.30;;;;;;;;;;103835;1289;545881;-74
2024/02/13 00:29:01;;;;;;;13.50;8.80;;;;;;;;;;103671;1297;545597;-73
2024/02/13 00:32:38;;;;;;;16.70;10.20;;;;;;;;;;103777;1292;545600;-74
2024/02/13 00:36:16;;;;;;;16.20;10.00;;;;;;;;;;103602;1295;545238;-73
2024/02/13 00:39:54;;;;;;;16.40;10.20;;;;;;;;;;103780;1289;545591;-73
2024/02/13 00:43:31;;;;;;;14.60;9.40;;;;;;;;;;103697;1290;544954;-74
2024/02/13 00:47:08;;;;;;;18.90;9.80;;;;;;;;;;103794;1291;545864;-74
2024/02/13 00:50:48;;;;;;;18.10;10.40;;;;;;;;;;103645;1289;545358;-74
2024/02/13 00:54:24;;;;;;;21.10;10.70;;;;;;;;;;103725;1290;544627;-73
2024/02/13 00:58:00;;;;;;;14.60;9.80;;;;;;;;;;103863;1288;544928;-74
2024/02/13 01:01:43;;;;;;;18.30;11.50;;;;;;;;;;103605;1290;546084;-74
2024/02/13 01:05:15;;;;;;;17.90;11.10;;;;;;;;;;103753;1290;545984;-74
2024/02/13 01:08:52;;;;;;;18.10;10.80;;;;;;;;;;103819;1290;544835;-74
2024/02/13 01:12:30;;;;;;;17.40;10.90;;;;;;;;;;103854;1289;545338;-73
2024/02/13 01:16:07;;;;;;;17.00;10.50;;;;;;;;;;103728;1295;545246;-74
2024/02/13 01:19:47;;;;;;;15.80;10.10;;;;;;;;;;103801;1290;544736;-73
2024/02/13 01:23:22;;;;;;;19.10;11.10;;;;;;;;;;103753;1289;545803;-73
2024/02/13 01:27:00;;;;;;;15.90;10.10;;;;;;;;;;103630;1295;545010;-74
2024/02/13 01:30:38;;;;;;;17.30;9.80;;;;;;;;;;103700;1292;545120;-74
2024/02/13 01:34:15;;;;;;;16.80;10.90;;;;;;;;;;103612;1291;544792;-73
2024/02/13 01:37:48;;;;;;;17.00;10.80;;;;;;;;;;103817;1289;545445;-74
2024/02/13 01:41:29;;;;;;;15.90;10.70;;;;;;;;;;103835;1292;545676;-74
2024/02/13 01:45:07;;;;;;;14.80;10.70;;;;;;;;;;103808;1291;545428;-74
2024/02/13 01:48:45;;;;;;;17.70;11.70;;;;;;;;;;103715;1289;545468;-74
2024/02/13 01:52:22;;;;;;;19.10;11.90;;;;;;;;;;103795;1290;544989;-74
2024/02/13 01:56:01;;;;;;;18.00;11.00;;;;;;;;;;103672;1291;544743;-73
2024/02/13 01:59:39;;;;;;;16.90;10.50;;;;;;;;;;103615;1294;545077;-73
2024/02/13 02:03:17;;;;;;;15.40;10.30;;;;;;;;;;103631;1291;544975;-74
2024/02/13 02:06:52;;;;;;;16.80;10.60;;;;;;;;;;103726;1292;544901;-73
2024/02/13 02:10:29;;;;;;;16.20;9.90;;;;;;;;;;103753;1295;545055;-74
2024/02/13 02:14:09;;;;;;;14.10;9.80;;;;;;;;;;103886;1289;545031;-74
2024/02/13 02:17:51;;;;;;;14.90;9.80;;;;;;;;;;103682;1292;545671;-74
2024/02/13 02:21:21;;;;;;;16.80;10.30;;;;;;;;;;103775;1289;545069;-74
2024/02/13 02:24:59;;;;;;;16.70;10.40;;;;;;;;;;103666;1289;547011;-74
2024/02/13 02:28:37;;;;;;;19.60;12.20;;;;;;;;;;103808;1289;544712;-74
2024/02/13 02:32:15;;;;;;;15.30;9.60;;;;;;;;;;104172;1287;544806;-73
2024/02/13 02:35:53;;;;;;;13.40;9.30;;;;;;;;;;103960;1292;545045;-73
2024/02/13 02:39:25;;;;;;;14.80;10.40;;;;;;;;;;103799;1295;545494;-74
2024/02/13 02:43:06;;;;;;;16.70;10.10;;;;;;;;;;104570;1283;545574;-74
2024/02/13 02:46:47;;;;;;;15.30;10.10;;;;;;;;;;103742;1292;544776;-74
2024/02/13 02:50:22;;;;;;;15.40;9.80;;;;;;;;;;103761;1291;545503;-74
2024/02/13 02:53:59;;;;;;;16.90;10.20;;;;;;;;;;103627;1291;545166;-73
2024/02/13 02:57:37;;;;;;;16.60;10.10;;;;;;;;;;103860;1288;544743;-74
2024/02/13 03:01:13;;;;;;;16.80;11.30;;;;;;;;;;103755;1288;545065;-74
2024/02/13 03:04:49;;;;;;;16.30;10.40;;;;;;;;;;103713;1290;545165;-74
2024/02/13 03:08:29;;;;;;;15.30;9.70;;;;;;;;;;103735;1289;545112;-74
2024/02/13 03:12:06;;;;;;;15.70;9.20;;;;;;;;;;103723;1291;545073;-73
2024/02/13 03:15:44;;;;;;;14.10;9.20;;;;;;;;;;103631;1293;544778;-73
2024/02/13 03:19:21;;;;;;;14.20;9.30;;;;;;;;;;103820;1292;545313;-73
2024/02/13 03:22:59;;;;;;;13.80;8.90;;;;;;;;;;103817;1289;545352;-73
2024/02/13 03:26:35;;;;;;;15.20;9.80;;;;;;;;;;103720;1294;544734;-73
2024/02/13 03:30:14;;;;;;;18.30;10.80;;;;;;;;;;103707;1295;545283;-74
2024/02/13 03:33:51;;;;;;;16.30;9.90;;;;;;;;;;103652;1291;544931;-74
2024/02/13 03:37:28;;;;;;;14.30;9.20;;;;;;;;;;103892;1292;545715;-73
2024/02/13 03:41:06;;;;;;;12.10;8.20;;;;;;;;;;103584;1291;544808;-73
2024/02/13 03:44:45;;;;;;;12.70;8.40;;;;;;;;;;103948;1288;544997;-73
2024/02/13 03:48:17;;;;;;;15.40;8.90;;;;;;;;;;103738;1292;545345;-71
2024/02/13 03:51:59;;;;;;;14.50;8.80;;;;;;;;;;103834;1289;545614;-73
2024/02/13 03:55:35;;;;;;;13.40;7.50;;;;;;;;;;103717;1292;545443;-74
2024/02/13 03:59:13;;;;;;;15.40;9.10;;;;;;;;;;104456;1285;545417;-72
2024/02/13 04:02:51;;;;;;;13.70;7.90;;;;;;;;;;103728;1292;544919;-73
2024/02/13 04:06:28;;;;;;;13.20;8.30;;;;;;;;;;103823;1288;545243;-74
2024/02/13 04:10:06;;;;;;;12.80;7.70;;;;;;;;;;104091;1285;546429;-73
2024/02/13 04:13:44;;;;;;;13.70;8.50;;;;;;;;;;103802;1291;544770;-73
2024/02/13 04:17:20;;;;;;;14.90;8.60;;;;;;;;;;103758;1292;544740;-73
2024/02/13 04:20:58;;;;;;;12.10;7.20;;;;;;;;;;103800;1290;544782;-73
2024/02/13 04:24:35;;;;;;;16.50;9.00;;;;;;;;;;103710;1291;544908;-73
2024/02/13 04:28:13;;;;;;;14.00;8.60;;;;;;;;;;103833;1288;545332;-73
2024/02/13 04:31:50;;;;;;;19.00;11.80;;;;;;;;;;103720;1289;545669;-73
2024/02/13 04:35:28;;;;;;;13.50;8.60;;;;;;;;;;103652;1294;545002;-73
2024/02/13 04:39:07;;;;;;;14.90;9.20;;;;;;;;;;103977;1292;545839;-73
2024/02/13 04:42:42;;;;;;;10.70;6.80;;;;;;;;;;103742;1292;544792;-73
2024/02/13 04:46:24;;;;;;;15.80;9.40;;;;;;;;;;103818;1295;545624;-73
2024/02/13 04:50:01;;;;;;;14.90;8.30;;;;;;;;;;103831;1292;545487;-73
2024/02/13 04:53:35;;;;;;;16.00;9.10;;;;;;;;;;103827;1292;544983;-73
2024/02/13 04:57:12;;;;;;;20.40;10.80;;;;;;;;;;103802;1293;544803;-72
2024/02/13 05:01:01;;;;;;;15.30;10.00;;;;;;;;;;103920;1289;544833;-73
2024/02/13 05:08:06;;;;;;;40.60;17.70;;;;;;;;;;103783;1290;544910;-74
2024/02/13 05:11:42;;;;;;;21.10;12.10;;;;;;;;;;103767;1292;544813;-70
2024/02/13 05:15:21;;;;;;;20.70;12.60;;;;;;;;;;103734;1289;544923;-73
2024/02/13 05:18:57;;;;;;;21.60;13.40;;;;;;;;;;104463;1283;544865;-72
2024/02/13 05:22:34;;;;;;;20.70;11.90;;;;;;;;;;103757;1289;544815;-73
2024/02/13 05:26:13;;;;;;;20.70;12.80;;;;;;;;;;103925;1298;544972;-74
2024/02/13 05:29:49;;;;;;;18.60;12.30;;;;;;;;;;103676;1291;545319;-73
2024/02/13 05:33:27;;;;;;;24.30;14.30;;;;;;;;;;103750;1291;545245;-73
2024/02/13 05:37:06;;;;;;;18.40;12.60;;;;;;;;;;103797;1292;545770;-73
2024/02/13 05:40:43;;;;;;;21.20;14.00;;;;;;;;;;103997;1289;544781;-73
2024/02/13 05:44:19;;;;;;;23.10;14.00;;;;;;;;;;103765;1292;544980;-74
2024/02/13 05:47:57;;;;;;;23.30;15.40;;;;;;;;;;103741;1290;544933;-73
2024/02/13 05:51:34;;;;;;;25.80;15.80;;;;;;;;;;103959;1289;544986;-73
2024/02/13 05:55:11;;;;;;;21.80;14.20;;;;;;;;;;103735;1294;544780;-73
2024/02/13 05:58:49;;;;;;;22.00;13.70;;;;;;;;;;103723;1292;545315;-73
2024/02/13 06:02:30;;;;;;;24.00;15.70;;;;;;;;;;103801;1289;544967;-73
2024/02/13 06:06:05;;;;;;;24.50;16.70;;;;;;;;;;103715;1292;544947;-74
2024/02/13 06:09:42;;;;;;;25.00;15.60;;;;;;;;;;103692;1289;545026;-73
2024/02/13 06:13:18;;;;;;;23.90;14.50;;;;;;;;;;103761;1292;545072;-73
2024/02/13 06:16:57;;;;;;;26.40;15.20;;;;;;;;;;103685;1294;544980;-73
2024/02/13 06:20:34;;;;;;;24.00;16.60;;;;;;;;;;103711;1291;545572;-73
2024/02/13 06:24:11;;;;;;;29.90;18.50;;;;;;;;;;103898;1291;545070;-73
2024/02/13 06:27:50;;;;;;;32.30;19.60;;;;;;;;;;103952;1286;545608;-73
2024/02/13 06:31:33;;;;;;;30.70;19.00;;;;;;;;;;103524;1292;544716;-74
2024/02/13 06:35:03;;;;;;;25.70;17.20;;;;;;;;;;103766;1295;546498;-73
2024/02/13 06:38:41;;;;;;;29.30;19.30;;;;;;;;;;103845;1290;544983;-73
2024/02/13 06:42:19;;;;;;;26.30;16.20;;;;;;;;;;103825;1288;544980;-73
2024/02/13 06:46:16;;;;;;;24.80;15.50;;;;;;;;;;103717;1295;547814;-74
2024/02/13 06:49:36;;;;;;;26.50;17.20;;;;;;;;;;104056;1289;545549;-74
2024/02/13 06:53:11;;;;;;;26.30;17.50;;;;;;;;;;103638;1292;546046;-73
2024/02/13 06:56:48;;;;;;;27.50;17.80;;;;;;;;;;103811;1299;544810;-74
2024/02/13 07:00:25;;;;;;;23.70;15.90;;;;;;;;;;103818;1288;545532;-73
2024/02/13 07:04:03;;;;;;;23.60;15.40;;;;;;;;;;103805;1289;544725;-74
2024/02/13 07:07:41;;;;;;;26.80;16.80;;;;;;;;;;103656;1291;544865;-73
2024/02/13 07:11:18;;;;;;;24.80;17.20;;;;;;;;;;103658;1297;545538;-73
2024/02/13 07:14:56;;;;;;;26.70;16.80;;;;;;;;;;103596;1295;546242;-73
2024/02/13 07:18:33;;;;;;;25.20;15.20;;;;;;;;;;103563;1291;545011;-74
2024/02/13 07:22:11;;;;;;;22.70;14.60;;;;;;;;;;103618;1292;545137;-74
2024/02/13 07:25:48;;;;;;;24.10;14.30;;;;;;;;;;103827;1301;545073;-74
2024/02/13 07:29:26;;;;;;;21.40;13.40;;;;;;;;;;103831;1292;545239;-73
2024/02/13 07:33:03;;;;;;;17.90;11.60;;;;;;;;;;103730;1292;546087;-73
2024/02/13 07:36:42;;;;;;;21.40;13.40;;;;;;;;;;103709;1292;544980;-73
2024/02/13 07:40:19;;;;;;;21.70;14.80;;;;;;;;;;103843;1289;545704;-74
2024/02/13 07:43:56;;;;;;;19.60;11.80;;;;;;;;;;103733;1289;545901;-73
2024/02/13 07:47:34;;;;;;;18.10;10.60;;;;;;;;;;103711;1292;544917;-74
2024/02/13 07:51:11;;;;;;;17.70;10.50;;;;;;;;;;103630;1295;545455;-74
2024/02/13 07:54:47;;;;;;;17.30;10.80;;;;;;;;;;103774;1290;545795;-74
2024/02/13 07:58:26;;;;;;;14.70;9.20;;;;;;;;;;103520;1292;545018;-73
2024/02/13 08:01:59;;;;;;;13.60;8.40;;;;;;;;;;104032;1289;545047;-72
2024/02/13 08:05:40;;;;;;;15.30;8.10;;;;;;;;;;103690;1289;545357;-74
2024/02/13 08:09:19;;;;;;;16.40;8.60;;;;;;;;;;103728;1288;544925;-74
2024/02/13 08:12:51;;;;;;;18.20;9.00;;;;;;;;;;103631;1292;544900;-74
2024/02/13 08:16:32;;;;;;;16.40;8.70;;;;;;;;;;103738;1292;545943;-73
2024/02/13 08:20:10;;;;;;;16.40;8.40;;;;;;;;;;103780;1295;545751;-73
2024/02/13 08:23:48;;;;;;;18.30;9.40;;;;;;;;;;103731;1290;544940;-73
2024/02/13 08:27:25;;;;;;;14.80;8.10;;;;;;;;;;103647;1295;545670;-73
2024/02/13 08:31:03;;;;;;;14.60;7.90;;;;;;;;;;103910;1288;544783;-73
2024/02/13 08:34:40;;;;;;;13.30;7.80;;;;;;;;;;103670;1289;544768;-72
2024/02/13 08:38:17;;;;;;;17.30;9.60;;;;;;;;;;103941;1289;544921;-71
2024/02/13 08:41:58;;;;;;;13.50;7.90;;;;;;;;;;103813;1290;544785;-72
2024/02/13 08:45:28;;;;;;;15.70;8.20;;;;;;;;;;103810;1292;544972;-72
2024/02/13 08:49:06;;;;;;;13.50;7.40;;;;;;;;;;103733;1292;545028;-73
2024/02/13 08:52:47;;;;;;;13.60;7.10;;;;;;;;;;103778;1291;544870;-71
2024/02/13 08:56:25;;;;;;;11.80;6.30;;;;;;;;;;103646;1305;546565;-72
2024/02/13 09:00:03;;;;;;;9.90;6.00;;;;;;;;;;103837;1289;544859;-73
2024/02/13 09:03:40;;;;;;;13.50;7.30;;;;;;;;;;103768;1291;545761;-71
2024/02/13 09:07:17;;;;;;;13.40;7.70;;;;;;;;;;103799;1292;545621;-72
2024/02/13 09:10:55;;;;;;;16.40;8.80;;;;;;;;;;103653;1292;545875;-73
2024/02/13 09:14:33;;;;;;;20.00;9.40;;;;;;;;;;104416;1282;544754;-73
2024/02/13 09:18:10;;;;;;;19.40;8.60;;;;;;;;;;103812;1289;544953;-72
2024/02/13 09:21:47;;;;;;;13.90;7.10;;;;;;;;;;103820;1291;546001;-73
2024/02/13 09:25:25;;;;;;;14.20;7.50;;;;;;;;;;103728;1295;545461;-72
2024/02/13 09:29:04;;;;;;;13.30;5.90;;;;;;;;;;103842;1289;544984;-73
2024/02/13 09:32:40;;;;;;;11.10;5.20;;;;;;;;;;103651;1291;545889;-73
2024/02/13 09:36:20;;;;;;;10.60;4.70;;;;;;;;;;103706;1295;544715;-73
2024/02/13 09:39:55;;;;;;;13.00;6.20;;;;;;;;;;103774;1295;544792;-73
2024/02/13 09:43:32;;;;;;;12.50;5.50;;;;;;;;;;103779;1289;545253;-73
2024/02/13 09:47:07;;;;;;;11.90;5.10;;;;;;;;;;103788;1293;544915;-72
2024/02/13 09:50:48;;;;;;;10.60;4.60;;;;;;;;;;103818;1289;545897;-73
2024/02/13 09:54:25;;;;;;;13.80;5.30;;;;;;;;;;103762;1291;544994;-73
2024/02/13 09:58:02;;;;;;;12.60;5.70;;;;;;;;;;103771;1289;544736;-73
2024/02/13 10:01:39;;;;;;;10.90;4.60;;;;;;;;;;103769;1292;545355;-72
2024/02/13 10:05:18;;;;;;;13.10;5.80;;;;;;;;;;103832;1289;544868;-73
2024/02/13 10:08:54;;;;;;;8.90;4.20;;;;;;;;;;103793;1292;545043;-73
2024/02/13 10:12:32;;;;;;;11.20;4.90;;;;;;;;;;103784;1292;544968;-72
2024/02/13 10:16:28;;;;;;;12.80;5.00;;;;;;;;;;103659;1290;544960;-73
2024/02/13 10:19:46;;;;;;;10.40;4.80;;;;;;;;;;103810;1292;544921;-73
2024/02/13 10:23:26;;;;;;;10.10;5.60;;;;;;;;;;103675;1291;544990;-72
2024/02/13 10:27:05;;;;;;;11.80;5.40;;;;;;;;;;103806;1292;544811;-73
2024/02/13 10:30:39;;;;;;;15.60;6.90;;;;;;;;;;103724;1292;545004;-73
2024/02/13 10:34:19;;;;;;;11.00;4.90;;;;;;;;;;103804;1289;545399;-73
2024/02/13 10:37:54;;;;;;;15.60;6.70;;;;;;;;;;103771;1289;544940;-72
2024/02/13 10:41:35;;;;;;;15.70;5.60;;;;;;;;;;103991;1288;544953;-73
2024/02/13 10:45:11;;;;;;;12.30;5.90;;;;;;;;;;103927;1289;545582;-72
2024/02/13 10:48:51;;;;;;;10.00;4.50;;;;;;;;;;103763;1289;544753;-73
2024/02/13 10:52:25;;;;;;;10.20;4.10;;;;;;;;;;104012;1294;546587;-72
2024/02/13 10:55:57;;;;;;;8.90;3.80;;;;;;;;;;103829;1292;545101;-73
2024/02/13 10:59:41;;;;;;;9.10;4.40;;;;;;;;;;103865;1289;545345;-73
2024/02/13 11:03:17;;;;;;;10.90;4.90;;;;;;;;;;103793;1292;545044;-73
2024/02/13 11:06:54;;;;;;;10.70;5.00;;;;;;;;;;103797;1292;545275;-72
2024/02/13 11:10:34;;;;;;;11.90;6.20;;;;;;;;;;104032;1292;544971;-73
2024/02/13 11:14:15;;;;;;;14.50;6.00;;;;;;;;;;103822;1289;544968;-72
2024/02/13 11:17:46;;;;;;;11.50;4.60;;;;;;;;;;103940;1289;545365;-73
2024/02/13 11:21:25;;;;;;;16.40;5.20;;;;;;;;;;103778;1289;545320;-72
2024/02/13 11:25:10;;;;;;;9.60;3.60;;;;;;;;;;103809;1289;545701;-72
2024/02/13 11:28:41;;;;;;;14.20;4.90;;;;;;;;;;103827;1289;545827;-72
2024/02/13 11:32:23;;;;;;;20.00;7.60;;;;;;;;;;103827;1289;545677;-73
2024/02/13 11:35:55;;;;;;;17.80;6.40;;;;;;;;;;104023;1285;545060;-73
2024/02/13 11:39:31;;;;;;;13.00;4.40;;;;;;;;;;103764;1289;544722;-73
2024/02/13 11:43:19;;;;;;;11.30;3.50;;;;;;;;;;103682;1291;544970;-73
2024/02/13 11:46:54;;;;;;;9.20;3.20;;;;;;;;;;103782;1289;546324;-73
2024/02/13 11:50:23;;;;;;;7.80;3.30;;;;;;;;;;103751;1292;544919;-73
2024/02/13 11:54:01;;;;;;;8.90;3.60;;;;;;;;;;103749;1289;546314;-73
2024/02/13 11:57:37;;;;;;;9.30;3.20;;;;;;;;;;103835;1292;545924;-72
2024/02/13 12:01:18;;;;;;;8.40;3.00;;;;;;;;;;103811;1290;545025;-72
2024/02/13 12:04:53;;;;;;;9.20;3.30;;;;;;;;;;103494;1295;545252;-73
2024/02/13 12:08:34;;;;;;;8.70;3.50;;;;;;;;;;103876;1289;544960;-72
2024/02/13 12:12:09;;;;;;;8.90;3.50;;;;;;;;;;103611;1290;545924;-73
2024/02/13 12:15:46;;;;;;;11.60;4.10;;;;;;;;;;103784;1289;544903;-72
2024/02/13 12:19:24;;;;;;;10.20;3.80;;;;;;;;;;104035;1285;544701;-74
2024/02/13 12:23:05;;;;;;;9.20;4.20;;;;;;;;;;103760;1291;545601;-73
2024/02/13 12:26:38;;;;;;;13.90;5.00;;;;;;;;;;103802;1292;544789;-74
2024/02/13 12:30:22;;;;;;;10.60;4.90;;;;;;;;;;103444;1292;547757;-73
2024/02/13 12:34:06;;;;;;;8.20;2.90;;;;;;;;;;103883;1289;545322;-73
2024/02/13 12:37:30;;;;;;;6.70;2.60;;;;;;;;;;104015;1289;544903;-73
2024/02/13 12:41:07;;;;;;;9.20;3.70;;;;;;;;;;103763;1292;545066;-73
2024/02/13 12:44:47;;;;;;;10.30;2.90;;;;;;;;;;104009;1289;545089;-73
2024/02/13 12:48:23;;;;;;;9.50;3.30;;;;;;;;;;103707;1295;545179;-73
2024/02/13 12:51:59;;;;;;;7.20;3.10;;;;;;;;;;103766;1292;545245;-73
2024/02/13 12:55:41;;;;;;;14.00;4.80;;;;;;;;;;103702;1296;544970;-73
2024/02/13 12:59:12;;;;;;;9.40;3.30;;;;;;;;;;103921;1292;544848;-71
2024/02/13 13:02:54;;;;;;;7.90;2.90;;;;;;;;;;103731;1291;546107;-73
2024/02/13 13:06:33;;;;;;;7.10;3.20;;;;;;;;;;103773;1290;544815;-73
2024/02/13 13:10:13;;;;;;;9.40;3.20;;;;;;;;;;104100;1285;544716;-74
2024/02/13 13:13:45;;;;;;;7.50;2.80;;;;;;;;;;103786;1291;545027;-74
2024/02/13 13:17:23;;;;;;;10.50;4.00;;;;;;;;;;103712;1297;545278;-73
2024/02/13 13:21:00;;;;;;;8.70;3.40;;;;;;;;;;103778;1289;545402;-73
2024/02/13 13:24:38;;;;;;;11.70;5.50;;;;;;;;;;103780;1292;545430;-73
2024/02/13 13:28:18;;;;;;;11.50;5.40;;;;;;;;;;103951;1292;544912;-74
2024/02/13 13:31:52;;;;;;;12.90;5.30;;;;;;;;;;103849;1296;545450;-73
2024/02/13 13:35:31;;;;;;;13.40;6.50;;;;;;;;;;103721;1291;545062;-73
2024/02/13 13:39:10;;;;;;;14.50;4.60;;;;;;;;;;103704;1295;544739;-73
2024/02/13 13:42:44;;;;;;;12.30;4.50;;;;;;;;;;103747;1292;544798;-73
2024/02/13 13:46:24;;;;;;;10.00;4.40;;;;;;;;;;103628;1290;545180;-74
2024/02/13 13:49:59;;;;;;;12.50;4.70;;;;;;;;;;103820;1292;544926;-74
2024/02/13 13:53:37;;;;;;;8.80;3.50;;;;;;;;;;104262;1287;545426;-74
2024/02/13 13:57:14;;;;;;;10.10;3.70;;;;;;;;;;103725;1291;545483;-73
2024/02/13 14:00:49;;;;;;;14.90;5.10;;;;;;;;;;103919;1289;545639;-73
2024/02/13 14:04:29;;;;;;;20.00;8.20;;;;;;;;;;103450;1295;544820;-74
2024/02/13 14:08:09;;;;;;;18.00;6.80;;;;;;;;;;103789;1294;545803;-73
2024/02/13 14:11:44;;;;;;;13.00;4.40;;;;;;;;;;103886;1292;545387;-73
2024/02/13 14:15:28;;;;;;;9.60;4.00;;;;;;;;;;103801;1289;544909;-73
2024/02/13 14:18:59;;;;;;;6.20;3.00;;;;;;;;;;103716;1292;544951;-73
2024/02/13 14:22:37;;;;;;;9.70;4.20;;;;;;;;;;103736;1290;544927;-73
2024/02/13 14:26:14;;;;;;;9.90;4.10;;;;;;;;;;103845;1289;544845;-74
2024/02/13 14:29:52;;;;;;;11.80;4.00;;;;;;;;;;103726;1295;545897;-74
2024/02/13 14:33:29;;;;;;;16.40;8.00;;;;;;;;;;103836;1289;545589;-73
2024/02/13 14:37:06;;;;;;;13.40;6.70;;;;;;;;;;103676;1290;545241;-73
2024/02/13 14:40:44;;;;;;;16.70;7.70;;;;;;;;;;103836;1289;544838;-73
2024/02/13 14:44:18;;;;;;;17.20;8.10;;;;;;;;;;104048;1289;544839;-73
2024/02/13 14:47:58;;;;;;;15.10;6.30;;;;;;;;;;103757;1289;544747;-73
2024/02/13 14:51:36;;;;;;;13.40;6.50;;;;;;;;;;103757;1291;544936;-73
2024/02/13 14:55:13;;;;;;;13.10;5.50;;;;;;;;;;103793;1290;544945;-73
2024/02/13 14:58:47;;;;;;;14.40;7.20;;;;;;;;;;103845;1289;545632;-73
2024/02/13 15:02:35;;;;;;;14.10;8.10;;;;;;;;;;103980;1295;544888;-72
2024/02/13 15:06:06;;;;;;;13.50;7.80;;;;;;;;;;104419;1282;545058;-73
2024/02/13 15:09:44;;;;;;;12.50;8.70;;;;;;;;;;104013;1292;545040;-73
2024/02/13 15:13:22;;;;;;;20.80;14.30;;;;;;;;;;103776;1291;545946;-73
2024/02/13 15:16:59;;;;;;;18.50;13.30;;;;;;;;;;103788;1291;546082;-73
2024/02/13 15:20:36;;;;;;;27.30;18.30;;;;;;;;;;103742;1292;545437;-73
2024/02/13 15:24:17;;;;;;;21.30;15.20;;;;;;;;;;103822;1291;544849;-73
2024/02/13 15:27:52;;;;;;;21.70;13.60;;;;;;;;;;103524;1295;545002;-73
2024/02/13 15:31:28;;;;;;;29.10;25.40;;;;;;;;;;103850;1292;544985;-73
2024/02/13 15:35:09;;;;;;;17.70;11.90;;;;;;;;;;103807;1288;546060;-73
2024/02/13 15:46:58;;;;;;;21.40;17.40;;;;;;;;;;104097;1286;544777;-73
2024/02/13 15:49:39;;;;;;;33.80;24.60;;;;;;;;;;103786;1291;544957;-73
2024/02/13 15:53:13;;;;;;;32.80;19.70;;;;;;;;;;103805;1291;545999;-73
2024/02/13 15:56:57;;;;;;;23.40;18.10;;;;;;;;;;103713;1289;544734;-73
2024/02/13 16:00:30;;;;;;;27.40;18.10;;;;;;;;;;103607;1291;545330;-73
2024/02/13 16:04:06;;;;;;;94.70;47.00;;;;;;;;;;103776;1291;546142;-73
2024/02/13 16:07:43;;;;;;;83.30;40.70;;;;;;;;;;103995;1292;544984;-73
2024/02/13 16:11:21;;;;;;;103.60;52.40;;;;;;;;;;103839;1292;545371;-73
2024/02/13 16:14:58;;;;;;;130.30;70.70;;;;;;;;;;103878;1290;545440;-73
2024/02/13 16:18:38;;;;;;;71.20;40.10;;;;;;;;;;103611;1295;545858;-73
2024/02/13 16:22:15;;;;;;;118.90;53.90;;;;;;;;;;103855;1288;545593;-73
2024/02/13 16:25:50;;;;;;;265.00;111.90;;;;;;;;;;103714;1290;545438;-73
2024/02/13 16:29:28;;;;;;;176.10;70.60;;;;;;;;;;104088;1293;546242;-73
2024/02/13 16:33:07;;;;;;;103.30;42.80;;;;;;;;;;103709;1295;545021;-73
2024/02/13 16:36:43;;;;;;;152.20;62.90;;;;;;;;;;103827;1290;545155;-73
2024/02/13 16:40:20;;;;;;;150.00;61.70;;;;;;;;;;103729;1290;545415;-73
2024/02/13 16:43:58;;;;;;;192.00;82.20;;;;;;;;;;103764;1289;544759;-73
2024/02/13 16:47:37;;;;;;;167.00;76.20;;;;;;;;;;103612;1304;544818;-73
2024/02/13 16:51:13;;;;;;;50.20;27.80;;;;;;;;;;103808;1290;546155;-73
2024/02/13 16:54:50;;;;;;;53.10;30.00;;;;;;;;;;103727;1296;544811;-73
2024/02/13 16:58:29;;;;;;;28.60;17.70;;;;;;;;;;103868;1292;545112;-73
2024/02/13 17:02:07;;;;;;;27.80;15.00;;;;;;;;;;103653;1291;544983;-73
2024/02/13 17:05:43;;;;;;;27.60;14.50;;;;;;;;;;103734;1291;545811;-73
2024/02/13 17:09:21;;;;;;;41.30;21.40;;;;;;;;;;103807;1288;545979;-73
2024/02/13 17:13:00;;;;;;;41.60;22.40;;;;;;;;;;103968;1289;544723;-73
2024/02/13 17:16:37;;;;;;;60.90;30.30;;;;;;;;;;103679;1297;544797;-73
2024/02/13 17:20:12;;;;;;;73.70;39.60;;;;;;;;;;103995;1289;545617;-73
2024/02/13 17:23:50;;;;;;;69.20;34.00;;;;;;;;;;103903;1288;545847;-73
2024/02/13 17:27:28;;;;;;;132.70;58.40;;;;;;;;;;103801;1289;544995;-74
2024/02/13 17:31:01;;;;;;;171.60;75.60;;;;;;;;;;103878;1292;545589;-71
2024/02/13 17:34:43;;;;;;;174.40;76.90;;;;;;;;;;103774;1289;544983;-71
2024/02/13 17:38:17;;;;;;;171.30;69.60;;;;;;;;;;105944;1292;545809;-74
2024/02/13 17:41:53;;;;;;;206.60;87.70;;;;;;;;;;103830;1289;546115;-72
2024/02/13 17:45:35;;;;;;;167.70;77.10;;;;;;;;;;103797;1292;544790;-73
2024/02/13 17:49:12;;;;;;;131.80;67.60;;;;;;;;;;103577;1294;545942;-73
2024/02/13 17:52:49;;;;;;;198.30;119.40;;;;;;;;;;103720;1291;545032;-73
2024/02/13 17:56:23;;;;;;;130.10;68.40;;;;;;;;;;104635;1280;544753;-73
2024/02/13 18:00:06;;;;;;;95.40;54.10;;;;;;;;;;103927;1289;544952;-73
2024/02/13 18:03:41;;;;;;;84.30;47.90;;;;;;;;;;103790;1289;544927;-73
2024/02/13 18:07:19;;;;;;;71.30;39.60;;;;;;;;;;104582;1283;544966;-73
2024/02/13 18:11:02;;;;;;;72.70;42.40;;;;;;;;;;103647;1292;548032;-73
2024/02/13 18:14:37;;;;;;;63.50;38.30;;;;;;;;;;103870;1289;545403;-73
2024/02/13 18:18:11;;;;;;;90.60;45.10;;;;;;;;;;103872;1289;544965;-72
2024/02/13 18:21:49;;;;;;;93.20;46.20;;;;;;;;;;103715;1294;545426;-73
2024/02/13 18:25:26;;;;;;;84.60;38.50;;;;;;;;;;103855;1294;544963;-73
2024/02/13 18:29:04;;;;;;;108.00;49.50;;;;;;;;;;103824;1292;544753;-73
2024/02/13 18:32:42;;;;;;;92.20;40.20;;;;;;;;;;103929;1289;545124;-73
2024/02/13 18:36:19;;;;;;;71.80;30.30;;;;;;;;;;103787;1292;544745;-73
2024/02/13 18:39:52;;;;;;;58.10;24.20;;;;;;;;;;103871;1289;545707;-73
2024/02/13 18:43:34;;;;;;;47.70;25.00;;;;;;;;;;103741;1291;544997;-73
2024/02/13 18:47:12;;;;;;;41.40;19.60;;;;;;;;;;103717;1289;544837;-73
2024/02/13 18:50:49;;;;;;;60.20;28.70;;;;;;;;;;103880;1289;545648;-73
2024/02/13 18:54:26;;;;;;;79.80;35.40;;;;;;;;;;103791;1289;544967;-73
2024/02/13 18:58:05;;;;;;;60.40;28.70;;;;;;;;;;103821;1289;544771;-73
2024/02/13 19:01:44;;;;;;;57.70;32.30;;;;;;;;;;104141;1287;545473;-73
2024/02/13 19:05:19;;;;;;;74.70;39.90;;;;;;;;;;103635;1292;544726;-72
2024/02/13 19:09:04;;;;;;;110.90;49.80;;;;;;;;;;103829;1291;545419;-73
2024/02/13 19:12:34;;;;;;;81.40;42.30;;;;;;;;;;103802;1289;545478;-73
2024/02/13 19:16:10;;;;;;;85.50;43.60;;;;;;;;;;103816;1292;544779;-73
2024/02/13 19:19:49;;;;;;;64.10;33.00;;;;;;;;;;103730;1291;545448;-73
2024/02/13 19:23:25;;;;;;;76.50;37.80;;;;;;;;;;103778;1289;546593;-73
2024/02/13 19:27:03;;;;;;;78.70;42.40;;;;;;;;;;103782;1296;545575;-73
2024/02/13 19:30:40;;;;;;;64.00;37.60;;;;;;;;;;103819;1289;544929;-73
2024/02/13 19:34:18;;;;;;;97.80;50.60;;;;;;;;;;103733;1289;544784;-73
2024/02/13 19:37:55;;;;;;;71.40;43.40;;;;;;;;;;103875;1292;544771;-73
2024/02/13 19:41:33;;;;;;;54.70;33.40;;;;;;;;;;103814;1289;544734;-72
2024/02/13 19:45:10;;;;;;;75.90;45.60;;;;;;;;;;104099;1292;545403;-72
2024/02/13 19:48:49;;;;;;;51.10;31.10;;;;;;;;;;104302;1286;544890;-72
2024/02/13 19:52:26;;;;;;;52.40;32.90;;;;;;;;;;103718;1291;545509;-73
2024/02/13 19:56:05;;;;;;;45.60;27.40;;;;;;;;;;104086;1289;545269;-73
2024/02/13 19:59:40;;;;;;;44.80;27.00;;;;;;;;;;103719;1291;544985;-73
2024/02/13 20:03:18;;;;;;;43.50;24.90;;;;;;;;;;103817;1289;544778;-73
2024/02/13 20:06:55;;;;;;;46.60;25.10;;;;;;;;;;103716;1292;544835;-72
2024/02/13 20:10:54;;;;;;;45.80;26.60;;;;;;;;;;104105;1288;548385;-73
2024/02/13 20:14:10;;;;;;;49.60;29.40;;;;;;;;;;103821;1292;546398;-73
2024/02/13 20:17:48;;;;;;;50.80;30.70;;;;;;;;;;103665;1291;545509;-73
2024/02/13 20:21:27;;;;;;;52.70;31.10;;;;;;;;;;103815;1290;545056;-73
2024/02/13 20:25:03;;;;;;;47.70;27.60;;;;;;;;;;103649;1292;545340;-73
2024/02/13 20:28:40;;;;;;;46.80;29.20;;;;;;;;;;103742;1292;545766;-72
2024/02/13 20:32:18;;;;;;;43.00;24.10;;;;;;;;;;103854;1295;544783;-73
2024/02/13 20:35:58;;;;;;;49.40;31.40;;;;;;;;;;103795;1289;545001;-73
2024/02/13 20:39:32;;;;;;;45.20;25.50;;;;;;;;;;103815;1289;545003;-73
2024/02/13 20:43:10;;;;;;;46.80;28.50;;;;;;;;;;103668;1292;545076;-73
2024/02/13 20:46:48;;;;;;;38.30;23.10;;;;;;;;;;103682;1295;545017;-73